createdAt,value
2023-04-04T00:00:40.285Z,93.00
2023-04-04T00:03:07.408Z,93.36
2023-04-04T00:05:35.760Z,93.29
2023-04-04T00:08:03.070Z,92.80
2023-04-04T00:10:29.669Z,93.01
2023-04-04T00:12:56.554Z,92.87
2023-04-04T00:15:23.153Z,92.89
2023-04-04T00:17:49.796Z,92.90
2023-04-04T00:20:16.393Z,93.12
2023-04-04T00:22:43.438Z,93.29
2023-04-04T00:25:10.915Z,93.14
2023-04-04T00:27:37.423Z,93.61
2023-04-04T00:30:04.190Z,93.20
2023-04-04T00:32:30.838Z,93.20
2023-04-04T00:34:58.073Z,93.71
2023-04-04T00:37:24.675Z,93.83
2023-04-04T00:39:51.241Z,93.99
2023-04-04T00:42:17.963Z,93.59
2023-04-04T00:44:44.657Z,95.35
2023-04-04T00:47:11.412Z,94.19
2023-04-04T00:49:38.018Z,94.01
2023-04-04T00:52:07.397Z,94.02
2023-04-04T00:54:34.487Z,94.06
2023-04-04T00:57:01.761Z,94.05
2023-04-04T00:59:29.211Z,94.22
2023-04-04T01:01:56.002Z,93.94
2023-04-04T01:04:22.760Z,94.17
2023-04-04T01:06:50.964Z,94.07
2023-04-04T01:09:17.714Z,94.23
2023-04-04T01:11:44.506Z,93.71
2023-04-04T01:14:11.101Z,93.83
2023-04-04T01:16:37.960Z,93.85
2023-04-04T01:19:06.693Z,93.89
2023-04-04T01:21:34.088Z,94.29
2023-04-04T01:24:01.519Z,94.58
2023-04-04T01:26:28.388Z,95.66
2023-04-04T01:28:55.463Z,95.72
2023-04-04T01:31:31.064Z,95.48
2023-04-04T01:34:12.171Z,94.84
2023-04-04T01:36:54.150Z,94.99
2023-04-04T01:39:23.528Z,95.29
2023-04-04T01:41:50.657Z,95.28
2023-04-04T01:44:17.776Z,96.40
2023-04-04T01:46:44.463Z,97.48
2023-04-04T01:49:11.412Z,96.74
2023-04-04T01:51:38.988Z,96.77
2023-04-04T01:54:05.580Z,100.00
2023-04-04T01:56:32.940Z,98.72
2023-04-04T01:58:59.536Z,97.38
2023-04-04T02:01:26.100Z,96.90
2023-04-04T02:03:52.885Z,96.94
2023-04-04T02:06:19.547Z,96.89
2023-04-04T02:08:46.570Z,97.08
2023-04-04T02:11:13.083Z,97.27
2023-04-04T02:13:44.298Z,97.16
2023-04-04T02:16:11.009Z,97.98
2023-04-04T02:18:37.674Z,98.42
2023-04-04T02:21:04.339Z,98.66
2023-04-04T02:23:31.170Z,98.17
2023-04-04T02:25:57.728Z,98.22
2023-04-04T02:28:24.356Z,98.54
2023-04-04T02:30:50.900Z,99.17
2023-04-04T02:33:17.452Z,99.08
2023-04-04T02:35:44.107Z,99.42
2023-04-04T02:38:10.772Z,99.30
2023-04-04T02:40:39.807Z,99.60
2023-04-04T02:43:06.727Z,100.00
2023-04-04T02:45:33.249Z,100.00
2023-04-04T02:47:59.856Z,99.72
2023-04-04T02:50:26.516Z,99.61
2023-04-04T02:52:54.946Z,99.64
2023-04-04T02:55:21.489Z,99.77
2023-04-04T02:57:51.678Z,100.00
2023-04-04T03:00:18.396Z,100.00
2023-04-04T03:02:45.121Z,99.76
2023-04-04T03:05:11.859Z,99.64
2023-04-04T03:07:38.371Z,99.52
2023-04-04T03:10:05.132Z,99.19
2023-04-04T03:12:31.758Z,99.20
2023-04-04T03:14:58.383Z,99.16
2023-04-04T03:17:25.707Z,99.07
2023-04-04T03:19:52.534Z,99.06
2023-04-04T03:22:19.179Z,98.90
2023-04-04T03:24:45.748Z,98.83
2023-04-04T03:27:12.499Z,99.10
2023-04-04T03:29:39.128Z,99.02
2023-04-04T03:32:06.219Z,99.12
2023-04-04T03:34:33.029Z,99.06
2023-04-04T03:37:02.811Z,98.82
2023-04-04T03:39:32.286Z,98.88
2023-04-04T03:41:58.888Z,98.88
2023-04-04T03:44:25.482Z,98.77
2023-04-04T03:46:52.097Z,98.78
2023-04-04T03:49:18.706Z,98.81
2023-04-04T03:51:45.232Z,98.68
2023-04-04T03:54:11.989Z,98.74
2023-04-04T03:56:38.601Z,98.96
2023-04-04T03:59:05.216Z,99.02
2023-04-04T04:01:31.753Z,98.89
2023-04-04T04:03:58.400Z,98.65
2023-04-04T04:06:24.987Z,98.80
2023-04-04T04:08:51.550Z,98.46
2023-04-04T04:11:18.366Z,98.40
2023-04-04T04:13:44.943Z,98.42
2023-04-04T04:16:11.478Z,98.50
2023-04-04T04:18:38.180Z,98.49
2023-04-04T04:21:05.174Z,98.48
2023-04-04T04:23:31.788Z,98.48
2023-04-04T04:25:58.391Z,98.53
2023-04-04T04:28:33.181Z,98.50
2023-04-04T04:31:07.971Z,98.33
2023-04-04T04:33:35.017Z,98.31
2023-04-04T04:36:05.742Z,98.39
2023-04-04T04:38:32.681Z,99.37
2023-04-04T04:40:59.297Z,98.58
2023-04-04T04:43:26.295Z,98.38
2023-04-04T04:45:52.826Z,98.23
2023-04-04T04:48:19.400Z,98.28
2023-04-04T04:50:47.074Z,98.03
2023-04-04T04:53:16.783Z,97.83
2023-04-04T04:55:43.808Z,98.08
2023-04-04T04:58:11.205Z,97.94
2023-04-04T05:00:38.393Z,97.83
2023-04-04T05:03:08.733Z,97.66
2023-04-04T05:05:35.453Z,97.67
2023-04-04T05:08:02.762Z,98.16
2023-04-04T05:10:29.981Z,98.21
2023-04-04T05:12:56.598Z,97.83
2023-04-04T05:15:23.517Z,97.70
2023-04-04T05:17:50.268Z,97.49
2023-04-04T05:20:17.069Z,97.39
2023-04-04T05:22:44.403Z,97.20
2023-04-04T05:25:11.377Z,97.22
2023-04-04T05:27:39.034Z,97.18
2023-04-04T05:30:06.186Z,96.98
2023-04-04T05:32:32.810Z,96.67
2023-04-04T05:34:59.610Z,96.60
2023-04-04T05:37:26.358Z,96.59
2023-04-04T05:39:52.972Z,96.77
2023-04-04T05:42:19.530Z,95.97
2023-04-04T05:44:46.398Z,95.87
2023-04-04T05:47:12.936Z,95.66
2023-04-04T05:49:39.549Z,95.65
2023-04-04T05:52:06.189Z,95.30
2023-04-04T05:54:32.752Z,95.34
2023-04-04T05:56:59.304Z,94.91
2023-04-04T05:59:26.018Z,94.94
2023-04-04T06:01:52.678Z,95.04
2023-04-04T06:04:19.239Z,94.91
2023-04-04T06:06:46.301Z,94.81
2023-04-04T06:09:12.856Z,94.72
2023-04-04T06:11:39.451Z,94.78
2023-04-04T06:14:06.024Z,94.68
2023-04-04T06:16:33.090Z,94.77
2023-04-04T06:18:59.684Z,94.74
2023-04-04T06:21:26.636Z,94.72
2023-04-04T06:23:53.187Z,94.69
2023-04-04T06:26:20.558Z,94.70
2023-04-04T06:28:50.349Z,94.67
2023-04-04T06:31:17.277Z,94.58
2023-04-04T06:33:43.943Z,94.52
2023-04-04T06:36:10.732Z,94.51
2023-04-04T06:38:37.392Z,94.57
2023-04-04T06:41:03.928Z,94.39
2023-04-04T06:43:31.080Z,94.08
2023-04-04T06:45:58.040Z,93.96
2023-04-04T06:48:24.595Z,93.79
2023-04-04T06:50:51.331Z,93.58
2023-04-04T06:53:17.918Z,93.39
2023-04-04T06:55:44.565Z,93.23
2023-04-04T06:58:11.286Z,93.21
2023-04-04T07:00:38.160Z,92.60
2023-04-04T07:03:04.965Z,92.16
2023-04-04T07:05:32.368Z,92.17
2023-04-04T07:07:59.064Z,92.08
2023-04-04T07:10:26.181Z,91.40
2023-04-04T07:12:53.017Z,90.84
2023-04-04T07:15:19.740Z,90.58
2023-04-04T07:17:46.537Z,90.27
2023-04-04T07:20:13.555Z,89.80
2023-04-04T07:22:41.042Z,89.67
2023-04-04T07:25:08.253Z,89.46
2023-04-04T07:27:34.935Z,89.12
2023-04-04T07:30:01.462Z,88.47
2023-04-04T07:32:29.464Z,85.33
2023-04-04T07:34:56.153Z,87.50
2023-04-04T07:37:22.781Z,81.58
2023-04-04T07:39:50.103Z,85.43
2023-04-04T07:42:22.991Z,76.05
2023-04-04T07:44:50.532Z,82.16
2023-04-04T07:47:17.730Z,82.42
2023-04-04T07:49:44.436Z,82.52
2023-04-04T07:52:11.027Z,83.39
2023-04-04T07:54:40.315Z,82.78
2023-04-04T07:57:09.808Z,81.75
2023-04-04T07:59:36.887Z,82.04
2023-04-04T08:02:03.506Z,81.86
2023-04-04T08:04:30.234Z,80.51
2023-04-04T08:06:56.865Z,79.27
2023-04-04T08:09:23.430Z,78.79
2023-04-04T08:11:50.135Z,79.79
2023-04-04T08:14:17.275Z,79.96
2023-04-04T08:16:43.820Z,78.62
2023-04-04T08:19:10.379Z,79.70
2023-04-04T08:21:37.305Z,80.03
2023-04-04T08:24:03.916Z,79.59
2023-04-04T08:26:30.731Z,79.07
2023-04-04T08:28:57.267Z,79.08
2023-04-04T08:31:24.153Z,78.54
2023-04-04T08:33:50.847Z,78.06
2023-04-04T08:36:17.884Z,77.75
2023-04-04T08:38:44.762Z,78.43
2023-04-04T08:41:12.137Z,78.01
2023-04-04T08:43:41.224Z,78.18
2023-04-04T08:46:10.064Z,78.15
2023-04-04T08:48:39.285Z,77.50
2023-04-04T08:51:08.938Z,77.28
2023-04-04T08:53:37.188Z,77.01
2023-04-04T08:56:04.561Z,77.09
2023-04-04T08:58:31.204Z,76.33
2023-04-04T09:00:57.996Z,75.97
2023-04-04T09:03:31.044Z,76.00
2023-04-04T09:05:57.933Z,75.61
2023-04-04T09:08:24.956Z,75.14
2023-04-04T09:10:52.410Z,75.84
2023-04-04T09:13:19.320Z,75.10
2023-04-04T09:15:50.189Z,75.45
2023-04-04T09:18:16.981Z,75.43
2023-04-04T09:20:44.523Z,75.16
2023-04-04T09:23:13.159Z,74.65
2023-04-04T09:26:02.383Z,74.75
2023-04-04T09:28:30.380Z,74.25
2023-04-04T09:30:57.054Z,73.24
2023-04-04T09:33:26.812Z,73.67
2023-04-04T09:36:03.568Z,73.23
2023-04-04T09:38:31.433Z,71.83
2023-04-04T09:40:58.298Z,71.77
2023-04-04T09:43:25.274Z,71.61
2023-04-04T09:45:52.330Z,71.57
2023-04-04T09:48:28.923Z,66.53
2023-04-04T09:50:58.243Z,65.12
2023-04-04T09:53:25.040Z,61.82
2023-04-04T09:55:52.320Z,66.79
2023-04-04T09:58:23.755Z,60.48
2023-04-04T10:00:52.565Z,62.87
2023-04-04T10:03:21.910Z,66.58
2023-04-04T10:05:50.127Z,67.66
2023-04-04T10:08:22.207Z,66.63
2023-04-04T10:11:02.616Z,67.18
2023-04-04T10:13:37.165Z,66.47
2023-04-04T10:16:04.461Z,65.68
2023-04-04T10:18:32.451Z,63.45
2023-04-04T10:21:08.164Z,54.37
2023-04-04T10:23:42.361Z,52.60
2023-04-04T10:26:08.961Z,56.61
2023-04-04T10:28:35.749Z,61.61
2023-04-04T10:31:20.448Z,56.14
2023-04-04T10:34:04.732Z,57.06
2023-04-04T10:36:38.690Z,53.96
2023-04-04T10:39:12.851Z,63.10
2023-04-04T10:41:40.259Z,62.90
2023-04-04T10:44:30.469Z,62.97
2023-04-04T10:46:59.017Z,63.42
2023-04-04T10:49:25.919Z,63.52
2023-04-04T10:51:56.767Z,62.82
2023-04-04T10:54:24.147Z,62.07
2023-04-04T10:56:51.131Z,62.80
2023-04-04T10:59:18.268Z,63.24
2023-04-04T11:01:55.205Z,63.59
2023-04-04T11:04:28.682Z,63.34
2023-04-04T11:07:07.964Z,63.26
2023-04-04T11:09:50.685Z,63.38
2023-04-04T11:12:22.088Z,63.87
2023-04-04T11:15:01.060Z,60.29
2023-04-04T11:17:43.482Z,61.03
2023-04-04T11:20:10.812Z,63.03
2023-04-04T11:22:37.941Z,63.55
2023-04-04T11:25:23.418Z,63.31
2023-04-04T11:27:51.650Z,62.52
2023-04-04T11:30:18.327Z,53.56
2023-04-04T11:32:59.762Z,59.68
2023-04-04T11:35:33.111Z,59.95
2023-04-04T11:38:01.088Z,61.46
2023-04-04T11:40:37.593Z,59.72
2023-04-04T11:43:07.567Z,58.58
2023-04-04T11:45:35.040Z,60.55
2023-04-04T11:48:03.369Z,55.67
2023-04-04T11:50:34.828Z,55.85
2023-04-04T11:53:05.147Z,58.94
2023-04-04T11:55:32.186Z,60.39
2023-04-04T11:58:05.699Z,59.88
2023-04-04T12:00:35.051Z,60.59
2023-04-04T12:03:01.935Z,59.44
2023-04-04T12:05:30.822Z,60.68
2023-04-04T12:07:57.921Z,61.45
2023-04-04T12:10:24.709Z,61.35
2023-04-04T12:12:54.729Z,60.37
2023-04-04T12:15:22.075Z,60.67
2023-04-04T12:17:49.193Z,58.23
2023-04-04T12:20:16.049Z,55.91
2023-04-04T12:22:45.677Z,60.30
2023-04-04T12:25:12.364Z,60.30
2023-04-04T12:27:40.647Z,60.58
2023-04-04T12:30:15.270Z,60.65
2023-04-04T12:32:45.539Z,61.33
2023-04-04T12:35:13.430Z,52.49
2023-04-04T12:37:42.939Z,58.87
2023-04-04T12:40:10.739Z,57.10
2023-04-04T12:42:37.316Z,58.92
2023-04-04T12:45:05.393Z,52.50
2023-04-04T12:47:32.394Z,58.19
2023-04-04T12:49:59.045Z,59.02
2023-04-04T12:52:32.146Z,57.69
2023-04-04T12:55:08.235Z,60.35
2023-04-04T12:57:35.974Z,60.29
2023-04-04T13:00:04.610Z,59.61
2023-04-04T13:02:31.254Z,59.64
2023-04-04T13:04:58.574Z,58.88
2023-04-04T13:07:27.546Z,59.74
2023-04-04T13:09:55.437Z,58.27
2023-04-04T13:12:22.016Z,58.33
2023-04-04T13:15:01.535Z,58.00
2023-04-04T13:17:48.449Z,58.28
2023-04-04T13:20:16.895Z,57.58
2023-04-04T13:22:43.800Z,54.02
2023-04-04T13:25:11.235Z,55.98
2023-04-04T13:27:38.419Z,58.54
2023-04-04T13:30:06.563Z,57.27
2023-04-04T13:32:33.826Z,56.64
2023-04-04T13:35:00.420Z,56.59
2023-04-04T13:37:28.072Z,57.57
2023-04-04T13:39:54.648Z,47.73
2023-04-04T13:42:23.303Z,53.26
2023-04-04T13:44:49.833Z,55.26
2023-04-04T13:47:16.533Z,55.36
2023-04-04T13:49:43.077Z,50.40
2023-04-04T13:52:09.627Z,53.82
2023-04-04T13:54:36.319Z,53.17
2023-04-04T13:57:02.931Z,56.86
2023-04-04T13:59:29.651Z,54.47
2023-04-04T14:01:56.476Z,53.03
2023-04-04T14:04:24.315Z,55.36
2023-04-04T14:06:51.254Z,56.42
2023-04-04T14:09:17.795Z,56.55
2023-04-04T14:11:46.451Z,56.51
2023-04-04T14:14:13.147Z,57.85
2023-04-04T14:16:39.716Z,57.41
2023-04-04T14:19:07.036Z,57.04
2023-04-04T14:21:33.623Z,57.39
2023-04-04T14:24:00.298Z,57.45
2023-04-04T14:26:26.859Z,57.67
2023-04-04T14:28:53.467Z,57.44
2023-04-04T14:31:20.082Z,57.28
2023-04-04T14:33:46.699Z,57.68
2023-04-04T14:36:13.275Z,57.24
2023-04-04T14:38:39.824Z,57.05
2023-04-04T14:41:06.542Z,58.01
2023-04-04T14:43:33.140Z,57.03
2023-04-04T14:45:59.733Z,57.48
2023-04-04T14:48:26.534Z,56.45
2023-04-04T14:50:53.191Z,54.85
2023-04-04T14:53:19.733Z,55.04
2023-04-04T14:55:46.472Z,55.97
2023-04-04T14:58:13.188Z,57.58
2023-04-04T15:00:39.807Z,55.97
2023-04-04T15:03:08.434Z,56.66
2023-04-04T15:05:35.101Z,57.97
2023-04-04T15:08:01.679Z,56.05
2023-04-04T15:10:28.238Z,57.18
2023-04-04T15:12:55.321Z,57.05
2023-04-04T15:15:23.749Z,56.81
2023-04-04T15:17:51.328Z,57.32
2023-04-04T15:20:18.311Z,57.84
2023-04-04T15:22:44.938Z,57.75
2023-04-04T15:25:11.598Z,58.59
2023-04-04T15:27:39.233Z,59.04
2023-04-04T15:30:06.163Z,58.62
2023-04-04T15:32:32.826Z,61.22
2023-04-04T15:34:59.432Z,60.72
2023-04-04T15:37:26.561Z,61.62
2023-04-04T15:39:54.240Z,60.19
2023-04-04T15:42:21.183Z,61.35
2023-04-04T15:44:47.764Z,62.29
2023-04-04T15:47:15.754Z,63.77
2023-04-04T15:49:42.304Z,62.10
2023-04-04T15:52:08.932Z,65.56
2023-04-04T15:54:35.616Z,65.11
2023-04-04T15:57:02.152Z,65.18
2023-04-04T15:59:31.819Z,64.35
2023-04-04T16:01:58.722Z,66.13
2023-04-04T16:04:25.547Z,64.80
2023-04-04T16:06:52.182Z,64.81
2023-04-04T16:09:18.700Z,65.73
2023-04-04T16:11:45.298Z,65.82
2023-04-04T16:14:12.813Z,65.15
2023-04-04T16:16:40.724Z,66.82
2023-04-04T16:19:07.287Z,66.28
2023-04-04T16:21:34.022Z,65.69
2023-04-04T16:24:00.646Z,65.71
2023-04-04T16:26:27.191Z,65.67
2023-04-04T16:28:53.759Z,66.02
2023-04-04T16:31:20.378Z,66.58
2023-04-04T16:33:47.718Z,66.69
2023-04-04T16:36:14.319Z,66.59
2023-04-04T16:38:41.140Z,66.72
2023-04-04T16:41:07.726Z,66.58
2023-04-04T16:43:34.328Z,66.76
2023-04-04T16:46:00.910Z,66.98
2023-04-04T16:48:27.494Z,66.86
2023-04-04T16:50:54.816Z,66.72
2023-04-04T16:53:21.362Z,66.88
2023-04-04T16:55:47.998Z,67.27
2023-04-04T16:58:14.578Z,67.31
2023-04-04T17:00:41.963Z,67.16
2023-04-04T17:03:08.688Z,67.22
2023-04-04T17:05:35.362Z,67.51
2023-04-04T17:08:02.043Z,67.43
2023-04-04T17:10:28.626Z,67.57
2023-04-04T17:12:55.243Z,67.91
2023-04-04T17:15:21.947Z,67.96
2023-04-04T17:17:48.597Z,68.18
2023-04-04T17:20:18.332Z,68.19
2023-04-04T17:22:45.491Z,68.19
2023-04-04T17:25:12.261Z,68.43
2023-04-04T17:27:39.662Z,68.33
2023-04-04T17:30:08.357Z,68.60
2023-04-04T17:32:34.994Z,68.55
2023-04-04T17:35:02.182Z,68.76
2023-04-04T17:37:31.002Z,68.64
2023-04-04T17:39:58.553Z,68.63
2023-04-04T17:42:25.124Z,68.84
2023-04-04T17:44:51.885Z,68.81
2023-04-04T17:47:18.484Z,68.67
2023-04-04T17:49:46.015Z,68.88
2023-04-04T17:52:18.823Z,69.13
2023-04-04T17:54:47.900Z,69.23
2023-04-04T17:57:15.053Z,68.93
2023-04-04T17:59:42.084Z,69.14
2023-04-04T18:02:08.644Z,68.99
2023-04-04T18:04:35.245Z,69.04
2023-04-04T18:07:02.002Z,69.37
2023-04-04T18:09:29.106Z,69.42
2023-04-04T18:11:55.822Z,69.33
2023-04-04T18:14:22.865Z,69.54
2023-04-04T18:16:49.735Z,69.94
2023-04-04T18:19:16.389Z,69.77
2023-04-04T18:21:43.308Z,70.11
2023-04-04T18:24:11.798Z,70.35
2023-04-04T18:26:38.850Z,70.15
2023-04-04T18:29:05.458Z,70.41
2023-04-04T18:31:32.213Z,70.37
2023-04-04T18:33:58.869Z,70.26
2023-04-04T18:36:26.611Z,70.29
2023-04-04T18:38:53.663Z,70.27
2023-04-04T18:41:20.440Z,70.33
2023-04-04T18:43:47.032Z,70.33
2023-04-04T18:46:13.802Z,70.33
2023-04-04T18:48:41.512Z,70.36
2023-04-04T18:51:08.545Z,70.45
2023-04-04T18:53:35.104Z,70.69
2023-04-04T18:56:01.707Z,70.60
2023-04-04T18:58:28.349Z,70.93
2023-04-04T19:00:56.036Z,70.96
2023-04-04T19:03:23.157Z,71.81
2023-04-04T19:05:50.028Z,71.48
2023-04-04T19:08:17.542Z,71.84
2023-04-04T19:10:45.171Z,71.47
2023-04-04T19:13:11.738Z,71.46
2023-04-04T19:15:38.542Z,72.00
2023-04-04T19:18:05.492Z,72.15
2023-04-04T19:20:32.296Z,72.20
2023-04-04T19:22:58.850Z,72.16
2023-04-04T19:25:25.705Z,72.36
2023-04-04T19:27:52.492Z,72.62
2023-04-04T19:30:39.416Z,72.54
2023-04-04T19:33:10.289Z,73.21
2023-04-04T19:35:55.665Z,74.14
2023-04-04T19:38:23.002Z,74.34
2023-04-04T19:40:50.879Z,74.28
2023-04-04T19:43:19.714Z,75.35
2023-04-04T19:45:50.449Z,75.80
2023-04-04T19:48:35.929Z,75.84
2023-04-04T19:51:05.947Z,81.06
2023-04-04T19:53:32.668Z,80.41
2023-04-04T19:55:59.440Z,78.45
2023-04-04T19:58:26.038Z,80.09
2023-04-04T20:00:52.568Z,79.11
2023-04-04T20:03:34.120Z,77.77
2023-04-04T20:06:09.805Z,77.58
2023-04-04T20:08:41.446Z,77.74
2023-04-04T20:11:08.088Z,77.98
2023-04-04T20:13:36.068Z,77.78
2023-04-04T20:16:04.020Z,77.92
2023-04-04T20:18:32.206Z,78.31
2023-04-04T20:21:09.052Z,78.39
2023-04-04T20:23:46.829Z,78.47
2023-04-04T20:26:33.336Z,78.09
2023-04-04T20:28:59.914Z,78.39
2023-04-04T20:31:26.625Z,78.00
2023-04-04T20:33:53.214Z,78.06
2023-04-04T20:36:20.298Z,77.92
2023-04-04T20:38:47.211Z,79.12
2023-04-04T20:41:17.137Z,78.56
2023-04-04T20:43:49.289Z,78.52
2023-04-04T20:46:16.090Z,79.63
2023-04-04T20:48:42.782Z,78.24
2023-04-04T20:51:23.864Z,78.24
2023-04-04T20:53:51.452Z,78.06
2023-04-04T20:56:36.661Z,78.26
2023-04-04T20:59:06.287Z,78.34
2023-04-04T21:01:33.256Z,78.35
2023-04-04T21:03:59.893Z,78.75
2023-04-04T21:06:28.725Z,78.38
2023-04-04T21:08:55.610Z,78.39
2023-04-04T21:11:24.307Z,78.52
2023-04-04T21:13:50.970Z,78.67
2023-04-04T21:16:19.156Z,78.66
2023-04-04T21:18:46.306Z,78.65
2023-04-04T21:21:16.815Z,78.77
2023-04-04T21:24:01.662Z,78.85
2023-04-04T21:26:38.325Z,79.02
2023-04-04T21:29:08.723Z,79.09
2023-04-04T21:31:36.907Z,79.31
2023-04-04T21:34:11.063Z,79.44
2023-04-04T21:36:37.761Z,79.33
2023-04-04T21:39:10.977Z,79.57
2023-04-04T21:41:37.596Z,79.81
2023-04-04T21:44:05.345Z,79.88
2023-04-04T21:46:33.357Z,79.72
2023-04-04T21:49:00.193Z,79.81
2023-04-04T21:51:27.162Z,79.77
2023-04-04T21:53:54.057Z,79.32
2023-04-04T21:56:21.361Z,79.51
2023-04-04T21:58:47.999Z,79.58
2023-04-04T22:01:14.587Z,79.11
2023-04-04T22:03:41.329Z,79.15
2023-04-04T22:06:07.995Z,79.01
2023-04-04T22:08:34.726Z,78.88
2023-04-04T22:11:03.176Z,79.18
2023-04-04T22:13:33.497Z,78.96
2023-04-04T22:16:01.180Z,79.20
2023-04-04T22:18:33.140Z,79.38
2023-04-04T22:21:03.642Z,79.24
2023-04-04T22:23:35.264Z,79.30
2023-04-04T22:26:03.120Z,79.30
2023-04-04T22:28:29.691Z,79.50
2023-04-04T22:30:56.232Z,79.50
2023-04-04T22:33:22.741Z,79.66
2023-04-04T22:35:49.313Z,79.81
2023-04-04T22:38:15.832Z,79.97
2023-04-04T22:40:42.769Z,79.98
2023-04-04T22:43:09.660Z,80.07
2023-04-04T22:45:36.522Z,80.10
2023-04-04T22:48:03.653Z,80.34
2023-04-04T22:50:30.282Z,80.41
2023-04-04T22:52:58.682Z,80.70
2023-04-04T22:55:26.244Z,80.48
2023-04-04T22:57:52.860Z,80.59
2023-04-04T23:00:20.178Z,80.63
2023-04-04T23:02:47.779Z,80.27
2023-04-04T23:05:16.189Z,80.56
2023-04-04T23:07:43.549Z,80.39
2023-04-04T23:10:11.600Z,80.52
2023-04-04T23:12:38.724Z,81.06
2023-04-04T23:15:06.199Z,81.60
2023-04-04T23:17:33.453Z,81.52
2023-04-04T23:20:00.584Z,81.55
2023-04-04T23:22:27.824Z,81.66
2023-04-04T23:24:54.419Z,82.10
2023-04-04T23:27:21.197Z,82.53
2023-04-04T23:29:50.639Z,82.75
2023-04-04T23:32:17.154Z,82.88
2023-04-04T23:34:43.763Z,82.96
2023-04-04T23:37:10.299Z,83.06
2023-04-04T23:39:36.844Z,83.07
2023-04-04T23:42:04.396Z,83.08
2023-04-04T23:44:31.060Z,83.58
2023-04-04T23:46:58.972Z,83.59
2023-04-04T23:49:25.602Z,84.88
2023-04-04T23:51:52.145Z,84.76
2023-04-04T23:54:18.996Z,84.50
2023-04-04T23:56:45.752Z,84.97
2023-04-04T23:59:12.339Z,85.80
